Winkler County Airport
KINK : now visible

Airfield :











YOU CAN JOIN US ON...

 
LOGIN :

Register | Disclaimer

   EN    FR    IT 

 









Legend :    VFR   Marginal VFR   IFR   Intensive IFR   Very Intensive IFR
Visi :
Ceiling :
>= 8 km
>= 3000ft
5 to 8 km
1000 to 3000 ft
1500m to 5 km
500 to 1000 ft
800 to 1500m
200 to 500 ft
< 800m
< 200 ft
Symbols :   Thunderstorms  Fog  Heavy snow  Heavy precipitations  Wind > 20 kt






- Airport Elevation : 2822 ft


KINK - Winkler County

CURRENT METAR :
  • 271553Z AUTO 28013KT CLR 34/M09 A3000 RMK AO2 SLP103 T03441094

EXPIRED METARs :
  • 271453Z AUTO 29009KT CLR 31/M08 A2999 RMK AO2 SLP102 T03111083 51016 $
  • 271353Z AUTO 31003KT CLR 27/M07 A2998 RMK AO2 SLP099 T02721072 $
  • 271253Z AUTO 30006KT CLR 22/M08 A2996 RMK AO2 SLP095 T02171083 $
  • 271153Z AUTO 31005KT CLR 17/M10 A2994 RMK AO2 SLP090 T01721100 10267 20172 53009 $

TAF KINK
Valid from the 27 at 12:00 until the 28 at 12:00 UTC


271120Z 2712/2812 30008KT P6SM SKC
FM280200 15006KT P6SM SCT200
KZFW FIR / North America



MET'MAP, your aeronautical weather chart ! - Copyright ORBIFLY December 2007 - Disclaimer

ORBIFLY MET'MAP TEAM :

Programming & Development : Alexandra Zaïnal
Original concept : Baudouin d'Aumeries
Technical & hardware support : Manuel Goepfert
Assistance : Marc-Olivier Méhu




SOURCES & CREDITS :

   NOAA       Earth
Advisory